Time;durP1;ratioP1;P1;durP2;ratioP2;P2;SDS_P1;SDS_P2;PMS_P1;PMS_P2;Temp;Humidity;BMP_temperature;BMP_pressure;BME280_temperature;BME280_humidity;BME280_pressure;Samples;Min_cycle;Max_cycle;Signal;HPM_P1;HPM_P2
2022/05/13 00:01:11;;;;;;;;;;;25.20;41.20;;;;;;1573467;74;742;-67
2022/05/13 00:03:12;;;;;;;;;;;25.30;41.20;;;;;;1576505;74;750;-67
2022/05/13 00:05:14;;;;;;;;;;;25.20;41.20;;;;;;1580203;74;735;-67
2022/05/13 00:07:16;;;;;;;;;;;25.20;41.30;;;;;;1575090;74;1914;-67
2022/05/13 00:09:18;;;;;;;;;;;25.20;41.30;;;;;;1573522;74;1094;-67
2022/05/13 00:11:20;;;;;;;;;;;25.20;41.30;;;;;;1577181;74;647;-67
2022/05/13 00:13:22;;;;;;;;;;;25.20;41.40;;;;;;1570979;75;724;-67
2022/05/13 00:15:24;;;;;;;;;;;25.20;41.30;;;;;;1576508;75;760;-67
2022/05/13 00:17:27;;;;;;;;;;;25.30;41.40;;;;;;1577656;75;759;-67
2022/05/13 00:19:29;;;;;;;;;;;25.20;41.40;;;;;;1563232;75;1149;-67
2022/05/13 00:21:31;;;;;;;;;;;25.20;41.30;;;;;;1569342;74;673;-67
2022/05/13 00:23:32;;;;;;;;;;;25.20;41.30;;;;;;1543993;75;737;-68
2022/05/13 00:25:36;;;;;;;;;;;25.20;41.30;;;;;;1528581;77;798;-67
2022/05/13 00:27:38;;;;;;;;;;;25.20;41.30;;;;;;1550514;76;1927;-67
2022/05/13 00:29:40;;;;;;;;;;;25.30;41.30;;;;;;1529244;76;1138;-66
2022/05/13 00:31:42;;;;;;;;;;;25.20;41.30;;;;;;1538202;76;681;-67
2022/05/13 00:33:44;;;;;;;;;;;25.20;41.30;;;;;;1544640;76;621;-68
2022/05/13 00:35:46;;;;;;;;;;;25.20;41.30;;;;;;1538960;76;666;-68
2022/05/13 00:37:48;;;;;;;;;;;25.30;41.30;;;;;;1538775;76;649;-68
2022/05/13 00:39:49;;;;;;;;;;;25.30;41.40;;;;;;1532259;76;1069;-67
2022/05/13 00:41:53;;;;;;;;;;;25.20;41.40;;;;;;1551333;76;762;-68
2022/05/13 00:43:55;;;;;;;;;;;25.20;41.40;;;;;;1548519;76;781;-68
2022/05/13 00:45:57;;;;;;;;;;;25.20;41.30;;;;;;1538755;76;660;-68
2022/05/13 00:47:59;;;;;;;;;;;25.20;41.30;;;;;;1531311;76;1930;-69
2022/05/13 00:50:01;;;;;;;;;;;25.20;41.40;;;;;;1539372;76;1162;-69
2022/05/13 00:52:03;;;;;;;;;;;25.20;41.40;;;;;;1535203;76;804;-67
2022/05/13 00:54:06;;;;;;;;;;;25.20;41.50;;;;;;1538982;76;574;-67
2022/05/13 00:56:07;;;;;;;;;;;25.20;41.50;;;;;;1547169;76;650;-67
2022/05/13 00:58:10;;;;;;;;;;;25.20;41.50;;;;;;1532954;76;748;-67
2022/05/13 01:00:13;;;;;;;;;;;25.20;41.40;;;;;;1489433;79;1412;-67
2022/05/13 01:02:15;;;;;;;;;;;25.20;41.50;;;;;;1537812;77;665;-67
2022/05/13 01:04:18;;;;;;;;;;;25.30;41.50;;;;;;1531809;77;1561;-67
2022/05/13 01:06:23;;;;;;;;;;;25.30;41.50;;;;;;1544370;77;727;-66
2022/05/13 01:08:26;;;;;;;;;;;25.20;41.50;;;;;;1532790;75;1940;-66
2022/05/13 01:10:27;;;;;;;;;;;25.30;41.50;;;;;;1531557;77;1140;-67
2022/05/13 01:12:31;;;;;;;;;;;25.20;41.50;;;;;;1531600;77;818;-67
2022/05/13 01:14:34;;;;;;;;;;;25.30;41.50;;;;;;1533049;77;671;-67
2022/05/13 01:18:40;;;;;;;;;;;25.30;41.50;;;;;;1463918;77;1068;-68
2022/05/13 01:20:46;;;;;;;;;;;25.30;41.50;;;;;;1532107;76;1158;-66
2022/05/13 01:22:48;;;;;;;;;;;25.30;41.60;;;;;;1531242;77;1823;-67
2022/05/13 01:24:50;;;;;;;;;;;25.30;41.40;;;;;;1531216;75;719;-69
2022/05/13 01:26:52;;;;;;;;;;;25.30;41.50;;;;;;1541591;77;1901;-68
2022/05/13 01:28:55;;;;;;;;;;;25.30;41.50;;;;;;1531782;77;1127;-68
2022/05/13 01:30:58;;;;;;;;;;;25.30;41.50;;;;;;1531607;77;746;-68
2022/05/13 01:33:00;;;;;;;;;;;25.30;41.60;;;;;;1538441;77;684;-68
2022/05/13 01:35:02;;;;;;;;;;;25.20;41.70;;;;;;1531485;77;700;-67
2022/05/13 01:37:04;;;;;;;;;;;25.20;41.70;;;;;;1534946;77;751;-68
2022/05/13 01:39:06;;;;;;;;;;;25.20;41.70;;;;;;1533930;77;1174;-68
2022/05/13 01:41:08;;;;;;;;;;;25.20;41.70;;;;;;1537361;77;685;-68
2022/05/13 01:43:10;;;;;;;;;;;25.20;41.80;;;;;;1540562;77;777;-67
2022/05/13 01:45:12;;;;;;;;;;;25.20;41.80;;;;;;1525335;77;648;-66
2022/05/13 01:47:14;;;;;;;;;;;25.10;41.80;;;;;;1531784;77;1926;-67
2022/05/13 01:49:16;;;;;;;;;;;25.20;41.90;;;;;;1533413;71;2190;-62
2022/05/13 01:51:17;;;;;;;;;;;25.20;41.90;;;;;;1620919;71;682;-63
2022/05/13 01:53:19;;;;;;;;;;;25.10;41.80;;;;;;1622260;73;728;-63
2022/05/13 01:55:22;;;;;;;;;;;25.10;41.90;;;;;;1612803;71;737;-63
2022/05/13 01:57:24;;;;;;;;;;;25.10;41.80;;;;;;1615755;71;557;-63
2022/05/13 01:59:25;;;;;;;;;;;25.10;41.80;;;;;;1625014;71;1646;-62
2022/05/13 02:01:28;;;;;;;;;;;25.10;41.90;;;;;;1597194;73;656;-63
2022/05/13 02:03:44;;;;;;;;;;;25.10;41.90;;;;;;1601754;73;682;-62
2022/05/13 02:05:46;;;;;;;;;;;25.10;42.00;;;;;;1591059;73;754;-62
2022/05/13 02:07:48;;;;;;;;;;;25.10;42.00;;;;;;1596092;73;1925;-63
2022/05/13 02:09:50;;;;;;;;;;;25.10;42.00;;;;;;1597106;73;1142;-64
2022/05/13 02:11:52;;;;;;;;;;;25.10;42.00;;;;;;1599106;73;658;-65
2022/05/13 02:13:54;;;;;;;;;;;25.10;42.00;;;;;;1602403;73;732;-63
2022/05/13 02:15:56;;;;;;;;;;;25.00;42.10;;;;;;1597515;73;743;-65
2022/05/13 02:17:57;;;;;;;;;;;25.10;42.10;;;;;;1597189;73;816;-62
2022/05/13 02:19:59;;;;;;;;;;;25.10;42.10;;;;;;1596265;73;1110;-63
2022/05/13 02:22:01;;;;;;;;;;;25.10;42.10;;;;;;1596226;74;675;-62
2022/05/13 02:24:04;;;;;;;;;;;25.10;42.10;;;;;;1596168;73;712;-63
2022/05/13 02:26:07;;;;;;;;;;;25.10;42.10;;;;;;1598182;73;738;-63
2022/05/13 02:28:09;;;;;;;;;;;25.10;42.10;;;;;;1604325;73;1929;-64
2022/05/13 02:30:11;;;;;;;;;;;25.10;42.10;;;;;;1596056;73;1153;-65
2022/05/13 02:32:13;;;;;;;;;;;25.00;42.10;;;;;;1594751;73;683;-65
2022/05/13 02:34:15;;;;;;;;;;;25.10;42.10;;;;;;1598456;73;766;-65
2022/05/13 02:36:17;;;;;;;;;;;25.10;42.20;;;;;;1597469;73;715;-63
2022/05/13 02:38:18;;;;;;;;;;;25.10;42.20;;;;;;1595402;74;701;-62
2022/05/13 02:40:20;;;;;;;;;;;25.10;42.20;;;;;;1599329;73;1190;-64
2022/05/13 02:42:22;;;;;;;;;;;25.10;42.20;;;;;;1599292;73;706;-63
2022/05/13 02:44:25;;;;;;;;;;;25.10;42.30;;;;;;1593222;73;756;-62
2022/05/13 02:46:28;;;;;;;;;;;25.10;42.40;;;;;;1597032;74;681;-64
2022/05/13 02:48:30;;;;;;;;;;;25.00;42.40;;;;;;1592976;74;1921;-64
2022/05/13 02:50:32;;;;;;;;;;;25.10;42.40;;;;;;1597728;73;1155;-66
2022/05/13 02:52:34;;;;;;;;;;;25.10;42.40;;;;;;1596616;73;605;-65
2022/05/13 02:54:36;;;;;;;;;;;25.10;42.50;;;;;;1597419;73;753;-65
2022/05/13 02:56:38;;;;;;;;;;;25.20;42.40;;;;;;1596892;73;672;-66
2022/05/13 02:58:41;;;;;;;;;;;25.10;42.50;;;;;;1600739;73;680;-63
2022/05/13 03:00:44;;;;;;;;;;;25.20;42.50;;;;;;1601370;73;1172;-65
2022/05/13 03:02:46;;;;;;;;;;;25.20;42.60;;;;;;1596936;73;668;-66
2022/05/13 03:04:48;;;;;;;;;;;25.10;42.70;;;;;;1592446;73;605;-65
2022/05/13 03:06:51;;;;;;;;;;;25.20;42.60;;;;;;1596612;73;697;-66
2022/05/13 03:08:53;;;;;;;;;;;25.10;42.60;;;;;;1597043;74;1914;-66
2022/05/13 03:10:55;;;;;;;;;;;25.10;42.70;;;;;;1600201;73;1116;-64
2022/05/13 03:12:58;;;;;;;;;;;25.20;42.70;;;;;;1596336;74;726;-65
2022/05/13 03:15:00;;;;;;;;;;;25.00;42.60;;;;;;1596839;74;509;-66
2022/05/13 03:17:03;;;;;;;;;;;25.10;42.70;;;;;;1597084;74;699;-68
2022/05/13 03:19:05;;;;;;;;;;;25.10;42.70;;;;;;1601023;73;666;-66
2022/05/13 03:21:08;;;;;;;;;;;25.00;42.70;;;;;;1597188;73;1168;-67
2022/05/13 03:23:10;;;;;;;;;;;25.00;42.70;;;;;;1593074;74;682;-63
2022/05/13 03:25:12;;;;;;;;;;;25.10;42.70;;;;;;1598680;73;738;-66
2022/05/13 03:27:14;;;;;;;;;;;25.10;42.70;;;;;;1595247;73;715;-66
2022/05/13 03:29:16;;;;;;;;;;;25.00;42.70;;;;;;1594037;73;1925;-65
2022/05/13 03:31:18;;;;;;;;;;;25.00;42.70;;;;;;1594874;73;661;-66
2022/05/13 03:33:20;;;;;;;;;;;25.00;42.60;;;;;;1595590;73;920;-65
2022/05/13 03:35:22;;;;;;;;;;;25.00;42.70;;;;;;1596503;73;718;-66
2022/05/13 03:37:24;;;;;;;;;;;25.10;42.70;;;;;;1597402;74;805;-66
2022/05/13 03:39:25;;;;;;;;;;;25.10;42.70;;;;;;1596546;73;1145;-65
2022/05/13 03:41:27;;;;;;;;;;;25.00;42.70;;;;;;1597473;73;720;-67
2022/05/13 03:43:29;;;;;;;;;;;25.10;42.80;;;;;;1595810;74;684;-66
2022/05/13 03:45:32;;;;;;;;;;;25.10;42.70;;;;;;1595046;74;679;-65
2022/05/13 03:47:34;;;;;;;;;;;25.10;42.70;;;;;;1594558;74;1913;-66
2022/05/13 03:49:36;;;;;;;;;;;25.10;42.70;;;;;;1597430;73;1141;-66
2022/05/13 03:51:38;;;;;;;;;;;25.10;42.70;;;;;;1595866;73;780;-66
2022/05/13 03:53:40;;;;;;;;;;;25.00;42.70;;;;;;1594271;73;729;-63
2022/05/13 03:55:42;;;;;;;;;;;25.20;42.60;;;;;;1600554;73;744;-65
2022/05/13 03:57:44;;;;;;;;;;;25.20;42.70;;;;;;1594837;73;639;-65
2022/05/13 03:59:46;;;;;;;;;;;25.20;42.60;;;;;;1594578;73;1178;-67
2022/05/13 04:01:48;;;;;;;;;;;25.10;42.70;;;;;;1595297;73;746;-67
2022/05/13 04:03:50;;;;;;;;;;;25.10;42.70;;;;;;1594525;73;779;-66
2022/05/13 04:10:31;;;;;;;;;;;25.10;42.70;;;;;;1597221;73;1638;-65
2022/05/13 04:17:12;;;;;;;;;;;25.10;42.70;;;;;;1569167;75;1649;-68
2022/05/13 04:19:14;;;;;;;;;;;25.10;42.70;;;;;;1583059;73;1134;-66
2022/05/13 04:21:17;;;;;;;;;;;25.10;42.70;;;;;;1549438;75;672;-63
2022/05/13 04:23:19;;;;;;;;;;;25.00;42.70;;;;;;1542514;75;646;-65
2022/05/13 04:25:21;;;;;;;;;;;25.00;42.80;;;;;;1542179;76;629;-64
2022/05/13 04:27:23;;;;;;;;;;;25.10;42.80;;;;;;1605323;74;671;-63
2022/05/13 04:29:25;;;;;;;;;;;25.00;42.80;;;;;;1605275;73;1936;-63
2022/05/13 04:31:27;;;;;;;;;;;25.00;42.80;;;;;;1605237;73;716;-65
2022/05/13 04:33:29;;;;;;;;;;;25.00;42.80;;;;;;1603916;73;661;-62
2022/05/13 04:35:31;;;;;;;;;;;25.10;42.70;;;;;;1604784;74;676;-63
2022/05/13 04:37:33;;;;;;;;;;;25.20;42.70;;;;;;1604616;74;717;-64
2022/05/13 04:39:35;;;;;;;;;;;25.10;42.70;;;;;;1608604;73;1114;-63
2022/05/13 04:43:57;;;;;;;;;;;25.10;42.70;;;;;;1605368;74;1636;-63
2022/05/13 04:45:59;;;;;;;;;;;25.20;42.70;;;;;;1604716;74;723;-66
2022/05/13 04:48:26;;;;;;;;;;;25.20;42.60;;;;;;1605064;73;1938;-63
2022/05/13 04:50:23;;;;;;;;;;;25.10;42.60;;;;;;1598679;73;1689;-65
2022/05/13 04:52:25;;;;;;;;;;;25.10;42.60;;;;;;1605761;73;748;-61
2022/05/13 04:54:26;;;;;;;;;;;25.20;42.70;;;;;;1606623;73;699;-62
2022/05/13 04:56:29;;;;;;;;;;;25.20;42.70;;;;;;1605131;73;669;-62
2022/05/13 04:58:31;;;;;;;;;;;25.30;42.40;;;;;;1604908;74;671;-61
2022/05/13 05:00:33;;;;;;;;;;;25.30;42.30;;;;;;1602422;73;1260;-63
2022/05/13 05:02:35;;;;;;;;;;;25.30;42.30;;;;;;1607038;73;701;-62
2022/05/13 05:04:37;;;;;;;;;;;25.20;42.20;;;;;;1605238;73;676;-61
2022/05/13 05:06:39;;;;;;;;;;;25.20;42.10;;;;;;1603561;73;678;-61
2022/05/13 05:08:41;;;;;;;;;;;25.20;42.20;;;;;;1611040;73;1913;-62
2022/05/13 05:10:43;;;;;;;;;;;25.20;42.10;;;;;;1600650;73;1048;-61
2022/05/13 05:12:46;;;;;;;;;;;25.20;42.20;;;;;;1605283;74;744;-63
2022/05/13 05:14:48;;;;;;;;;;;25.20;42.20;;;;;;1604665;73;724;-61
2022/05/13 05:16:50;;;;;;;;;;;25.20;42.20;;;;;;1601670;73;709;-60
2022/05/13 05:18:52;;;;;;;;;;;25.20;42.30;;;;;;1606382;73;677;-60
2022/05/13 05:20:54;;;;;;;;;;;25.10;42.30;;;;;;1600448;73;1134;-61
2022/05/13 05:22:56;;;;;;;;;;;25.10;42.40;;;;;;1611688;73;693;-64
2022/05/13 05:24:58;;;;;;;;;;;25.20;42.40;;;;;;1602482;74;699;-59
2022/05/13 05:26:59;;;;;;;;;;;25.20;42.60;;;;;;1602571;74;766;-60
2022/05/13 05:29:01;;;;;;;;;;;25.00;42.60;;;;;;1605033;73;1934;-60
2022/05/13 05:31:03;;;;;;;;;;;25.10;42.70;;;;;;1604332;73;1114;-60
2022/05/13 05:33:05;;;;;;;;;;;25.10;42.70;;;;;;1600208;73;723;-61
2022/05/13 05:35:08;;;;;;;;;;;25.10;42.60;;;;;;1602236;74;637;-60
2022/05/13 05:37:10;;;;;;;;;;;25.00;42.60;;;;;;1607818;73;686;-61
2022/05/13 05:39:12;;;;;;;;;;;25.00;42.60;;;;;;1610642;73;1150;-60
2022/05/13 05:41:14;;;;;;;;;;;25.00;42.60;;;;;;1603436;73;749;-61
2022/05/13 05:43:16;;;;;;;;;;;25.00;42.70;;;;;;1602833;74;696;-62
2022/05/13 05:45:18;;;;;;;;;;;25.00;42.70;;;;;;1605349;73;685;-61
2022/05/13 05:47:23;;;;;;;;;;;25.00;42.70;;;;;;1605419;73;661;-63
2022/05/13 05:49:25;;;;;;;;;;;25.00;42.70;;;;;;1618568;73;1935;-64
2022/05/13 05:51:27;;;;;;;;;;;25.00;42.70;;;;;;1605137;73;852;-60
2022/05/13 05:58:09;;;;;;;;;;;24.90;42.70;;;;;;1597990;73;727;-63
2022/05/13 06:00:11;;;;;;;;;;;24.90;42.80;;;;;;1603880;73;1152;-61
2022/05/13 06:02:13;;;;;;;;;;;24.80;42.80;;;;;;1604257;73;692;-60
2022/05/13 06:04:15;;;;;;;;;;;24.90;42.90;;;;;;1605114;73;673;-61
2022/05/13 06:06:17;;;;;;;;;;;24.90;42.90;;;;;;1604137;73;708;-62
2022/05/13 06:08:19;;;;;;;;;;;24.90;42.90;;;;;;1611442;73;1938;-60
2022/05/13 06:10:21;;;;;;;;;;;24.80;42.80;;;;;;1600277;73;1138;-60
2022/05/13 06:12:23;;;;;;;;;;;24.90;42.90;;;;;;1598479;74;688;-65
2022/05/13 06:14:25;;;;;;;;;;;24.90;42.90;;;;;;1604515;73;636;-65
2022/05/13 06:16:27;;;;;;;;;;;24.80;42.80;;;;;;1604426;74;728;-65
2022/05/13 06:18:29;;;;;;;;;;;24.80;42.80;;;;;;1601892;73;571;-70
2022/05/13 06:20:31;;;;;;;;;;;24.80;42.80;;;;;;1612038;73;1151;-65
2022/05/13 06:22:33;;;;;;;;;;;24.90;43.10;;;;;;1604386;73;673;-64
2022/05/13 06:24:35;;;;;;;;;;;24.80;43.00;;;;;;1605240;73;659;-66
2022/05/13 06:26:36;;;;;;;;;;;24.80;43.00;;;;;;1604247;72;678;-65
2022/05/13 06:28:38;;;;;;;;;;;24.80;43.10;;;;;;1605117;74;1915;-66
2022/05/13 06:30:40;;;;;;;;;;;24.80;43.10;;;;;;1609178;73;1142;-65
2022/05/13 06:32:42;;;;;;;;;;;24.80;43.10;;;;;;1607640;73;713;-65
2022/05/13 06:34:44;;;;;;;;;;;24.90;43.30;;;;;;1601325;74;662;-65
2022/05/13 06:36:46;;;;;;;;;;;24.80;43.20;;;;;;1611041;73;648;-66
2022/05/13 06:38:48;;;;;;;;;;;24.90;43.40;;;;;;1604991;73;760;-63
2022/05/13 06:40:50;;;;;;;;;;;24.90;43.50;;;;;;1604416;73;1520;-65
2022/05/13 06:42:52;;;;;;;;;;;25.00;43.50;;;;;;1601827;73;600;-65
2022/05/13 06:44:54;;;;;;;;;;;25.00;43.50;;;;;;1603194;74;679;-66
2022/05/13 06:46:56;;;;;;;;;;;25.00;43.40;;;;;;1602942;74;746;-65
2022/05/13 06:48:58;;;;;;;;;;;25.10;43.40;;;;;;1604969;74;1964;-66
2022/05/13 06:51:01;;;;;;;;;;;25.10;43.30;;;;;;1602401;73;1106;-65
2022/05/13 06:53:03;;;;;;;;;;;25.30;43.10;;;;;;1603917;73;757;-67
2022/05/13 06:55:05;;;;;;;;;;;25.30;43.10;;;;;;1604967;73;732;-65
2022/05/13 06:57:07;;;;;;;;;;;25.30;42.90;;;;;;1605213;73;701;-68
2022/05/13 06:59:10;;;;;;;;;;;25.40;42.90;;;;;;1616273;73;746;-66
2022/05/13 07:01:11;;;;;;;;;;;25.40;42.80;;;;;;1605144;73;731;-67
2022/05/13 07:03:14;;;;;;;;;;;25.40;42.80;;;;;;1608374;73;663;-67
2022/05/13 07:05:16;;;;;;;;;;;25.60;42.70;;;;;;1604333;73;766;-66
2022/05/13 07:07:18;;;;;;;;;;;25.60;42.50;;;;;;1603585;73;694;-67
2022/05/13 07:09:20;;;;;;;;;;;25.60;42.40;;;;;;1604605;73;1928;-66
2022/05/13 07:11:22;;;;;;;;;;;25.60;42.30;;;;;;1608926;73;670;-68
2022/05/13 07:13:24;;;;;;;;;;;25.50;42.30;;;;;;1602409;74;705;-65
2022/05/13 07:15:26;;;;;;;;;;;25.50;42.40;;;;;;1605348;74;725;-65
2022/05/13 07:17:28;;;;;;;;;;;25.40;42.40;;;;;;1602222;73;735;-64
2022/05/13 07:19:30;;;;;;;;;;;25.40;42.40;;;;;;1605863;73;1142;-64
2022/05/13 07:21:31;;;;;;;;;;;25.30;42.50;;;;;;1605074;73;658;-65
2022/05/13 07:23:33;;;;;;;;;;;25.30;42.50;;;;;;1602627;73;604;-66
2022/05/13 07:25:35;;;;;;;;;;;25.30;42.70;;;;;;1605235;73;683;-67
2022/05/13 07:27:37;;;;;;;;;;;25.30;42.70;;;;;;1604235;73;746;-65
2022/05/13 07:29:39;;;;;;;;;;;25.20;42.80;;;;;;1603793;73;1954;-64
2022/05/13 07:31:41;;;;;;;;;;;25.30;42.80;;;;;;1602115;73;732;-63
2022/05/13 07:33:43;;;;;;;;;;;25.30;43.00;;;;;;1607606;73;728;-65
2022/05/13 07:35:44;;;;;;;;;;;25.20;43.10;;;;;;1605146;73;714;-65
2022/05/13 07:37:46;;;;;;;;;;;25.30;43.10;;;;;;1605291;73;1371;-65
2022/05/13 07:42:08;;;;;;;;;;;25.40;43.10;;;;;;1603257;73;1671;-65
2022/05/13 07:44:10;;;;;;;;;;;25.40;43.00;;;;;;1604128;73;742;-64
2022/05/13 07:46:12;;;;;;;;;;;25.50;43.10;;;;;;1604584;73;857;-67
2022/05/13 07:48:14;;;;;;;;;;;25.40;43.00;;;;;;1605163;73;704;-65
2022/05/13 07:50:16;;;;;;;;;;;25.50;43.00;;;;;;1601939;71;2072;-71
2022/05/13 07:52:18;;;;;;;;;;;25.50;42.90;;;;;;1571806;74;725;-69
2022/05/13 07:54:20;;;;;;;;;;;25.50;42.80;;;;;;1572855;74;789;-69
2022/05/13 07:56:22;;;;;;;;;;;25.50;42.80;;;;;;1572737;74;810;-70
2022/05/13 07:58:24;;;;;;;;;;;25.60;42.70;;;;;;1572000;74;754;-70
2022/05/13 08:00:26;;;;;;;;;;;25.50;42.70;;;;;;1572026;74;1296;-69
2022/05/13 08:02:28;;;;;;;;;;;25.50;42.60;;;;;;1567632;75;723;-70
2022/05/13 08:04:30;;;;;;;;;;;25.40;42.60;;;;;;1577553;75;727;-69
2022/05/13 08:06:32;;;;;;;;;;;25.40;42.60;;;;;;1569423;75;678;-70
2022/05/13 08:08:35;;;;;;;;;;;25.40;42.60;;;;;;1567106;75;620;-69
2022/05/13 08:10:38;;;;;;;;;;;25.40;42.60;;;;;;1565393;73;1930;-69
2022/05/13 08:12:40;;;;;;;;;;;25.40;42.70;;;;;;1577096;75;683;-69
2022/05/13 08:14:41;;;;;;;;;;;25.40;42.60;;;;;;1579907;75;759;-69
2022/05/13 08:16:43;;;;;;;;;;;25.30;42.60;;;;;;1574154;75;749;-69
2022/05/13 08:18:46;;;;;;;;;;;25.40;42.70;;;;;;1571382;75;735;-68
2022/05/13 08:20:48;;;;;;;;;;;25.40;42.60;;;;;;1568580;75;1144;-70
2022/05/13 08:22:50;;;;;;;;;;;25.40;42.60;;;;;;1567303;75;696;-72
2022/05/13 08:24:51;;;;;;;;;;;25.30;42.70;;;;;;1569431;75;741;-69
2022/05/13 08:26:54;;;;;;;;;;;25.30;42.70;;;;;;1568956;75;711;-70
2022/05/13 08:28:55;;;;;;;;;;;25.30;42.80;;;;;;1572879;75;719;-71
2022/05/13 08:30:57;;;;;;;;;;;25.30;42.80;;;;;;1579239;74;1949;-71
2022/05/13 08:33:01;;;;;;;;;;;25.30;42.80;;;;;;1561663;75;761;-69
2022/05/13 08:35:04;;;;;;;;;;;25.20;42.80;;;;;;1570231;75;1456;-69
2022/05/13 08:37:05;;;;;;;;;;;25.20;42.80;;;;;;1564317;75;691;-69
2022/05/13 08:39:10;;;;;;;;;;;25.20;42.70;;;;;;1573223;75;679;-67
2022/05/13 08:41:13;;;;;;;;;;;25.20;42.70;;;;;;1560456;75;1661;-70
2022/05/13 08:43:15;;;;;;;;;;;25.20;42.70;;;;;;1561385;75;767;-71
2022/05/13 08:45:18;;;;;;;;;;;25.20;42.70;;;;;;1569438;75;671;-70
2022/05/13 08:47:22;;;;;;;;;;;25.20;42.70;;;;;;1565424;75;705;-69
2022/05/13 08:49:24;;;;;;;;;;;25.10;42.80;;;;;;1573992;75;1925;-70
2022/05/13 08:51:37;;;;;;;;;;;25.10;42.80;;;;;;1581901;73;1107;-68
2022/05/13 08:53:41;;;;;;;;;;;25.10;43.00;;;;;;1577568;75;679;-69
2022/05/13 08:55:45;;;;;;;;;;;25.10;43.00;;;;;;1575872;75;1993;-68
2022/05/13 08:57:47;;;;;;;;;;;25.10;43.10;;;;;;1577543;75;702;-68
2022/05/13 08:59:50;;;;;;;;;;;25.00;43.10;;;;;;1540647;76;1201;-69
2022/05/13 09:01:56;;;;;;;;;;;25.00;43.20;;;;;;1568882;75;586;-68
2022/05/13 09:04:02;;;;;;;;;;;25.00;43.30;;;;;;1570523;75;724;-69
2022/05/13 09:06:22;;;;;;;;;;;25.00;43.40;;;;;;1577448;75;1013;-68
2022/05/13 09:08:24;;;;;;;;;;;25.00;43.40;;;;;;1574686;75;702;-68
2022/05/13 09:10:26;;;;;;;;;;;25.00;43.50;;;;;;1575875;73;1937;-68
2022/05/13 09:12:29;;;;;;;;;;;25.00;43.60;;;;;;1571355;75;688;-68
2022/05/13 09:14:52;;;;;;;;;;;25.00;43.60;;;;;;1565123;75;671;-68
2022/05/13 09:16:58;;;;;;;;;;;25.00;43.70;;;;;;1568434;75;711;-68
2022/05/13 09:19:03;;;;;;;;;;;25.00;43.70;;;;;;1575670;75;722;-68
2022/05/13 09:21:06;;;;;;;;;;;25.00;43.80;;;;;;1571784;75;1380;-67
2022/05/13 09:23:09;;;;;;;;;;;24.90;43.90;;;;;;1574850;75;1774;-70
2022/05/13 09:25:16;;;;;;;;;;;25.00;43.90;;;;;;1566568;75;694;-69
2022/05/13 09:27:18;;;;;;;;;;;25.00;43.90;;;;;;1575163;75;712;-69
2022/05/13 09:29:20;;;;;;;;;;;25.00;44.00;;;;;;1571063;75;697;-68
2022/05/13 09:31:22;;;;;;;;;;;24.90;44.10;;;;;;1574609;75;1935;-68
2022/05/13 09:33:31;;;;;;;;;;;25.00;44.10;;;;;;1559067;75;657;-69
2022/05/13 09:35:36;;;;;;;;;;;25.00;44.10;;;;;;1568795;75;755;-69
2022/05/13 09:37:39;;;;;;;;;;;25.00;44.10;;;;;;1565044;75;563;-68
2022/05/13 09:39:44;;;;;;;;;;;24.80;44.10;;;;;;1566776;75;1135;-68
2022/05/13 09:41:46;;;;;;;;;;;24.80;44.10;;;;;;1561808;75;707;-68
2022/05/13 09:43:52;;;;;;;;;;;24.90;44.30;;;;;;1565122;75;752;-69
2022/05/13 09:45:55;;;;;;;;;;;24.80;44.20;;;;;;1576549;75;811;-68
2022/05/13 09:48:01;;;;;;;;;;;24.80;44.20;;;;;;1565657;75;1889;-67
2022/05/13 09:50:03;;;;;;;;;;;24.80;44.30;;;;;;1570344;73;1957;-68
2022/05/13 09:52:09;;;;;;;;;;;24.90;44.40;;;;;;1573384;75;794;-66
2022/05/13 09:54:15;;;;;;;;;;;24.80;44.30;;;;;;1574486;75;704;-71
2022/05/13 09:56:17;;;;;;;;;;;24.90;44.30;;;;;;1568056;75;739;-67
2022/05/13 09:58:23;;;;;;;;;;;24.90;44.30;;;;;;1580302;75;736;-69
2022/05/13 10:00:26;;;;;;;;;;;24.80;44.20;;;;;;1569811;75;1159;-66
2022/05/13 10:02:35;;;;;;;;;;;24.80;44.30;;;;;;1575201;75;688;-66
2022/05/13 10:04:38;;;;;;;;;;;24.80;44.20;;;;;;1569965;75;753;-68
2022/05/13 10:06:40;;;;;;;;;;;24.80;44.30;;;;;;1567883;75;693;-67
2022/05/13 10:08:55;;;;;;;;;;;24.80;44.30;;;;;;1569488;75;736;-68
2022/05/13 10:15:48;;;;;;;;;;;24.70;44.80;;;;;;1561721;75;1724;-71
2022/05/13 10:17:51;;;;;;;;;;;24.70;44.80;;;;;;1577397;75;755;-67
2022/05/13 10:20:03;;;;;;;;;;;24.60;44.70;;;;;;1573082;75;1168;-67
2022/05/13 10:22:07;;;;;;;;;;;24.70;44.90;;;;;;1573394;75;879;-68
2022/05/13 10:24:19;;;;;;;;;;;24.60;44.70;;;;;;1561617;75;1634;-68
2022/05/13 10:26:23;;;;;;;;;;;24.70;44.90;;;;;;1558518;75;1913;-69
2022/05/13 10:28:26;;;;;;;;;;;24.70;44.80;;;;;;1570039;75;632;-69
2022/05/13 10:30:35;;;;;;;;;;;24.70;44.80;;;;;;1561900;75;1954;-69
2022/05/13 10:32:48;;;;;;;;;;;24.70;44.80;;;;;;1563277;75;695;-69
2022/05/13 10:34:50;;;;;;;;;;;24.60;44.60;;;;;;1560834;75;719;-70
2022/05/13 10:37:06;;;;;;;;;;;24.50;44.60;;;;;;1560696;75;736;-70
2022/05/13 10:39:09;;;;;;;;;;;24.60;44.60;;;;;;1561863;75;1748;-70
2022/05/13 10:41:12;;;;;;;;;;;24.60;44.70;;;;;;1559072;75;1143;-70
2022/05/13 10:43:19;;;;;;;;;;;24.50;44.70;;;;;;1564377;75;1848;-68
2022/05/13 10:45:22;;;;;;;;;;;24.60;44.70;;;;;;1540748;75;1136;-70
2022/05/13 10:47:25;;;;;;;;;;;24.60;44.60;;;;;;1567424;75;658;-68
2022/05/13 10:49:29;;;;;;;;;;;24.50;44.70;;;;;;1578549;75;678;-69
2022/05/13 10:51:35;;;;;;;;;;;24.50;44.70;;;;;;1567694;75;1943;-69
2022/05/13 10:53:38;;;;;;;;;;;24.50;44.70;;;;;;1566543;75;1039;-69
2022/05/13 10:55:45;;;;;;;;;;;24.60;44.70;;;;;;1569842;75;2065;-68
2022/05/13 10:57:58;;;;;;;;;;;24.50;44.70;;;;;;1567030;75;695;-70
2022/05/13 11:00:01;;;;;;;;;;;24.50;44.70;;;;;;1560198;75;1799;-70
2022/05/13 11:02:11;;;;;;;;;;;24.50;44.80;;;;;;1566205;75;1034;-70
2022/05/13 11:04:31;;;;;;;;;;;24.60;44.80;;;;;;1559778;75;618;-71
2022/05/13 11:06:39;;;;;;;;;;;24.50;44.90;;;;;;1567595;75;672;-71
2022/05/13 11:08:52;;;;;;;;;;;24.50;45.00;;;;;;1562617;75;2436;-70
2022/05/13 11:10:55;;;;;;;;;;;24.50;45.00;;;;;;1558847;75;1954;-70
2022/05/13 11:13:02;;;;;;;;;;;24.60;45.00;;;;;;1560896;75;803;-71
2022/05/13 11:15:08;;;;;;;;;;;24.50;45.00;;;;;;1568833;75;685;-71
2022/05/13 11:17:24;;;;;;;;;;;24.50;45.00;;;;;;1561184;75;641;-71
2022/05/13 11:19:34;;;;;;;;;;;24.60;45.00;;;;;;1561708;75;638;-71
2022/05/13 11:21:54;;;;;;;;;;;24.50;45.00;;;;;;1562019;75;690;-71
2022/05/13 11:26:36;;;;;;;;;;;24.50;45.10;;;;;;1561841;75;727;-71
2022/05/13 11:28:39;;;;;;;;;;;24.50;45.20;;;;;;1571732;75;576;-71
2022/05/13 11:30:46;;;;;;;;;;;24.50;45.30;;;;;;1560638;75;1947;-70
2022/05/13 11:32:49;;;;;;;;;;;24.50;45.30;;;;;;1560992;75;724;-70
2022/05/13 11:35:11;;;;;;;;;;;24.50;45.40;;;;;;1563995;75;721;-71
2022/05/13 11:37:15;;;;;;;;;;;24.50;45.40;;;;;;1556697;75;551;-71
2022/05/13 11:39:21;;;;;;;;;;;24.50;45.50;;;;;;1561364;75;1376;-71
2022/05/13 11:41:23;;;;;;;;;;;24.50;45.50;;;;;;1571657;75;1112;-71
2022/05/13 11:43:33;;;;;;;;;;;24.50;45.50;;;;;;1561828;75;662;-71
2022/05/13 11:45:36;;;;;;;;;;;24.50;45.50;;;;;;1559924;75;680;-71
2022/05/13 11:47:43;;;;;;;;;;;24.50;45.50;;;;;;1539000;75;1115;-70
2022/05/13 11:49:46;;;;;;;;;;;24.60;45.60;;;;;;1559165;75;1156;-70
2022/05/13 11:51:48;;;;;;;;;;;24.50;45.60;;;;;;1565387;75;1903;-71
2022/05/13 11:53:51;;;;;;;;;;;24.50;45.70;;;;;;1561234;75;683;-71
2022/05/13 11:55:53;;;;;;;;;;;24.50;45.60;;;;;;1561543;75;673;-70
2022/05/13 11:57:55;;;;;;;;;;;24.60;45.70;;;;;;1561018;75;688;-72
2022/05/13 11:59:58;;;;;;;;;;;24.60;45.60;;;;;;1561183;75;1080;-69
2022/05/13 12:02:11;;;;;;;;;;;24.50;45.70;;;;;;1564025;75;888;-70
2022/05/13 12:04:14;;;;;;;;;;;24.50;45.70;;;;;;1565598;75;816;-69
2022/05/13 12:06:16;;;;;;;;;;;24.60;45.70;;;;;;1559303;75;682;-70
2022/05/13 12:08:19;;;;;;;;;;;24.50;45.70;;;;;;1562246;75;676;-72
2022/05/13 12:10:25;;;;;;;;;;;24.60;45.70;;;;;;1568234;74;1935;-71
2022/05/13 12:12:35;;;;;;;;;;;24.60;45.70;;;;;;1564210;75;761;-69
2022/05/13 12:14:51;;;;;;;;;;;24.60;45.70;;;;;;1567247;75;966;-70
2022/05/13 12:16:54;;;;;;;;;;;24.50;45.60;;;;;;1565016;75;690;-71
2022/05/13 12:18:58;;;;;;;;;;;24.50;45.70;;;;;;1563837;75;1484;-69
2022/05/13 12:21:04;;;;;;;;;;;24.50;45.70;;;;;;1563474;75;1136;-70
2022/05/13 12:23:08;;;;;;;;;;;24.60;45.60;;;;;;1527924;76;1137;-70
2022/05/13 12:25:14;;;;;;;;;;;24.60;45.70;;;;;;1566007;75;695;-69
2022/05/13 12:27:16;;;;;;;;;;;24.60;45.80;;;;;;1553562;75;1086;-71
2022/05/13 12:29:20;;;;;;;;;;;24.50;45.90;;;;;;1536622;76;1175;-72
2022/05/13 12:31:29;;;;;;;;;;;24.60;45.90;;;;;;1559337;75;1972;-72
2022/05/13 12:33:34;;;;;;;;;;;24.60;45.90;;;;;;1561515;75;696;-71
2022/05/13 12:38:01;;;;;;;;;;;24.50;45.80;;;;;;1554439;75;1683;-70
2022/05/13 12:40:04;;;;;;;;;;;24.60;45.80;;;;;;1561741;75;1148;-73
2022/05/13 12:42:09;;;;;;;;;;;24.60;45.70;;;;;;1567065;75;674;-70
2022/05/13 12:44:13;;;;;;;;;;;24.60;45.70;;;;;;1578878;75;805;-71
2022/05/13 12:46:17;;;;;;;;;;;24.60;45.80;;;;;;1572315;75;692;-72